Time;durP1;ratioP1;P1;durP2;ratioP2;P2;SDS_P1;SDS_P2;PMS_P1;PMS_P2;Temp;Humidity;BMP_temperature;BMP_pressure;BME280_temperature;BME280_humidity;BME280_pressure;Samples;Min_cycle;Max_cycle;Signal;HPM_P1;HPM_P2
2021/03/12 05:00:53;;;;;;;6.97;4.25;;;6.00;99.90;;;;;;5703007;23;20257;-71
2021/03/12 05:03:20;;;;;;;10.38;4.15;;;6.10;99.90;;;;;;4950260;28;20202;-72
2021/03/12 05:05:47;;;;;;;9.75;4.18;;;6.10;99.90;;;;;;4953218;28;20212;-72
2021/03/12 05:08:14;;;;;;;5.38;3.33;;;6.10;99.90;;;;;;4951278;28;20264;-72
2021/03/12 05:10:48;;;;;;;8.70;3.80;;;6.10;99.90;;;;;;4937507;29;20226;-71
2021/03/12 05:13:14;;;;;;;11.23;4.65;;;6.10;99.90;;;;;;4933445;29;20217;-72
2021/03/12 05:15:40;;;;;;;5.97;2.92;;;6.10;99.90;;;;;;4933752;29;20209;-72
2021/03/12 05:18:08;;;;;;;4.63;3.08;;;6.10;99.90;;;;;;4931011;29;20277;-71
2021/03/12 05:20:34;;;;;;;4.25;2.83;;;6.10;99.90;;;;;;4921448;29;20225;-72
2021/03/12 05:23:00;;;;;;;3.88;3.50;;;6.10;99.90;;;;;;4923780;29;20556;-71
2021/03/12 05:25:26;;;;;;;6.05;3.97;;;6.10;99.90;;;;;;4918477;29;20206;-72
2021/03/12 05:27:52;;;;;;;3.85;3.08;;;6.20;99.90;;;;;;4935128;29;20206;-71
2021/03/12 05:30:19;;;;;;;9.15;3.90;;;6.20;99.90;;;;;;4936591;29;20704;-72
2021/03/12 05:32:45;;;;;;;5.63;2.92;;;6.10;99.90;;;;;;4934306;29;20202;-71
2021/03/12 05:35:13;;;;;;;6.28;3.17;;;6.10;99.90;;;;;;4936541;29;20209;-72
2021/03/12 05:37:39;;;;;;;6.35;3.40;;;6.10;99.90;;;;;;4919310;29;20217;-71
2021/03/12 05:40:06;;;;;;;5.13;2.97;;;6.20;99.90;;;;;;4927230;29;20332;-71
2021/03/12 05:42:33;;;;;;;4.97;2.60;;;6.20;99.90;;;;;;4918989;29;20211;-72
2021/03/12 05:45:01;;;;;;;6.88;3.70;;;6.10;99.90;;;;;;4926139;29;20490;-71
2021/03/12 05:47:27;;;;;;;7.10;3.80;;;6.20;99.90;;;;;;4925810;29;20206;-72
2021/03/12 05:49:55;;;;;;;5.10;3.65;;;6.20;99.90;;;;;;4925436;29;20277;-72
2021/03/12 05:52:22;;;;;;;4.78;3.03;;;6.20;99.90;;;;;;4936617;29;20229;-72
2021/03/12 05:54:49;;;;;;;4.60;3.63;;;6.20;99.90;;;;;;4934324;29;20210;-72
2021/03/12 05:57:15;;;;;;;3.45;3.05;;;6.10;99.90;;;;;;4919026;29;20258;-72
2021/03/12 05:59:41;;;;;;;5.80;2.78;;;6.20;99.90;;;;;;4925389;29;20226;-71
2021/03/12 06:02:08;;;;;;;7.55;3.25;;;6.20;99.90;;;;;;4934469;29;20269;-72
2021/03/12 06:04:34;;;;;;;4.53;2.50;;;6.20;99.90;;;;;;4921881;29;20209;-72
2021/03/12 06:07:00;;;;;;;3.00;2.80;;;6.20;99.90;;;;;;4936773;29;20604;-72
2021/03/12 06:09:27;;;;;;;6.10;2.97;;;6.10;99.90;;;;;;4935005;29;20207;-72
2021/03/12 06:11:55;;;;;;;2.78;2.50;;;6.20;99.90;;;;;;4936872;29;20229;-71
2021/03/12 06:14:52;;;;;;;5.63;2.60;;;6.20;99.90;;;;;;4935265;29;20691;-71
2021/03/12 06:17:31;;;;;;;6.93;3.30;;;6.20;99.90;;;;;;4936218;29;20297;-71
2021/03/12 06:19:58;;;;;;;3.70;2.85;;;6.20;99.90;;;;;;4926443;29;20320;-72
2021/03/12 06:22:24;;;;;;;3.20;2.83;;;6.20;99.90;;;;;;4936309;29;20230;-72
2021/03/12 06:24:52;;;;;;;5.95;3.35;;;6.20;99.90;;;;;;4931001;29;20203;-71
2021/03/12 06:27:28;;;;;;;6.22;3.67;;;6.20;99.90;;;;;;4917138;29;20226;-71
2021/03/12 06:29:58;;;;;;;5.45;3.40;;;6.20;99.90;;;;;;4921673;29;20326;-69
2021/03/12 06:32:41;;;;;;;6.80;2.92;;;6.20;99.90;;;;;;4936603;29;20233;-70
2021/03/12 06:35:09;;;;;;;6.03;2.78;;;6.20;99.90;;;;;;4927177;29;20222;-70
2021/03/12 06:37:36;;;;;;;7.03;3.67;;;6.30;99.90;;;;;;4917372;29;20729;-70
2021/03/12 06:40:16;;;;;;;3.13;1.92;;;6.30;99.90;;;;;;4916200;29;20326;-70
2021/03/12 06:43:04;;;;;;;5.95;2.53;;;6.30;99.90;;;;;;4936493;29;20573;-70
2021/03/12 06:45:32;;;;;;;7.22;2.40;;;6.30;99.90;;;;;;4928591;29;20216;-69
2021/03/12 06:48:15;;;;;;;8.05;2.50;;;6.50;99.90;;;;;;4917308;29;20298;-69
2021/03/12 06:50:43;;;;;;;8.57;2.67;;;6.50;99.90;;;;;;4926412;29;20309;-69
2021/03/12 06:53:24;;;;;;;7.95;2.40;;;6.60;99.90;;;;;;4931387;29;20248;-68
2021/03/12 06:55:52;;;;;;;8.35;3.10;;;6.60;99.90;;;;;;4926837;29;20199;-71
2021/03/12 06:58:19;;;;;;;2.70;2.50;;;6.70;99.90;;;;;;4920819;29;20205;-72
2021/03/12 07:00:45;;;;;;;2.67;2.40;;;6.70;99.90;;;;;;4899065;29;525727;-71
2021/03/12 07:03:23;;;;;;;6.63;2.78;;;6.80;99.90;;;;;;4929045;29;20224;-69
2021/03/12 07:05:57;;;;;;;5.10;3.05;;;6.80;99.90;;;;;;4918707;29;20257;-70
2021/03/12 07:08:28;;;;;;;9.15;3.13;;;6.80;99.90;;;;;;4930000;29;20211;-69
2021/03/12 07:10:55;;;;;;;6.85;2.88;;;6.70;99.90;;;;;;4923260;29;20226;-69
2021/03/12 07:13:21;;;;;;;5.22;2.78;;;6.70;99.90;;;;;;4924390;29;20209;-69
2021/03/12 07:15:51;;;;;;;8.82;3.25;;;6.70;99.90;;;;;;4935737;29;20210;-68
2021/03/12 07:18:17;;;;;;;3.35;2.58;;;6.70;99.90;;;;;;4934030;29;20206;-68
2021/03/12 07:20:43;;;;;;;6.97;3.00;;;6.70;99.90;;;;;;4917917;29;20234;-68
2021/03/12 07:23:10;;;;;;;4.13;3.15;;;6.80;99.90;;;;;;4928561;29;20522;-68
2021/03/12 07:25:39;;;;;;;5.13;2.90;;;6.90;99.90;;;;;;4936010;29;20229;-68
2021/03/12 07:28:07;;;;;;;4.50;3.00;;;6.90;99.90;;;;;;4931195;29;20218;-68
2021/03/12 07:30:36;;;;;;;4.43;3.33;;;6.80;99.90;;;;;;4917147;29;20234;-68
2021/03/12 07:33:03;;;;;;;4.97;2.80;;;6.90;99.90;;;;;;4920691;29;20659;-68
2021/03/12 07:35:32;;;;;;;3.83;2.33;;;6.90;99.90;;;;;;4935847;29;20220;-68
2021/03/12 07:38:00;;;;;;;7.10;3.13;;;6.90;99.90;;;;;;4934017;29;20631;-68
2021/03/12 07:40:27;;;;;;;4.15;2.22;;;6.90;99.90;;;;;;4928348;29;20242;-68
2021/03/12 07:42:55;;;;;;;9.38;3.83;;;7.00;99.90;;;;;;4917960;29;20214;-68
2021/03/12 07:45:23;;;;;;;2.85;2.70;;;7.00;99.90;;;;;;4935125;29;20216;-68
2021/03/12 07:47:49;;;;;;;3.50;2.85;;;7.00;99.90;;;;;;4935887;29;20253;-68
2021/03/12 07:50:27;;;;;;;3.00;1.90;;;7.10;99.90;;;;;;4922089;29;20214;-68
2021/03/12 07:52:54;;;;;;;3.28;2.45;;;7.20;99.90;;;;;;4935622;29;20630;-68
2021/03/12 07:55:57;;;;;;;3.95;2.33;;;7.20;99.90;;;;;;4926271;29;20289;-70
2021/03/12 07:58:55;;;;;;;2.47;2.38;;;7.30;99.90;;;;;;4917066;29;20226;-72
2021/03/12 08:01:24;;;;;;;6.63;3.00;;;7.20;99.90;;;;;;4923127;29;20650;-71
2021/03/12 08:03:51;;;;;;;3.80;2.83;;;7.20;99.90;;;;;;4916525;29;20236;-71
2021/03/12 08:06:34;;;;;;;2.75;2.55;;;7.20;99.90;;;;;;4926961;29;20206;-71
2021/03/12 08:09:01;;;;;;;4.57;2.45;;;7.20;99.90;;;;;;4921899;29;20209;-71
2021/03/12 08:11:33;;;;;;;2.20;2.10;;;7.30;99.90;;;;;;4930697;28;20241;-71
2021/03/12 08:14:13;;;;;;;1.98;1.92;;;7.40;99.90;;;;;;4935120;29;20660;-70
2021/03/12 08:17:13;;;;;;;2.58;2.20;;;7.50;99.90;;;;;;4935397;29;20213;-70
2021/03/12 08:19:42;;;;;;;6.95;2.63;;;7.60;99.90;;;;;;4926620;29;20261;-69
2021/03/12 08:22:45;;;;;;;3.53;2.60;;;7.70;99.90;;;;;;4927913;28;20233;-71
2021/03/12 08:25:41;;;;;;;3.28;2.20;;;7.70;99.90;;;;;;4921887;29;20614;-71
2021/03/12 08:28:29;;;;;;;3.60;2.30;;;7.60;99.90;;;;;;4916549;29;20206;-71
2021/03/12 08:30:57;;;;;;;2.70;2.47;;;7.70;99.90;;;;;;4921215;29;20676;-71
2021/03/12 08:33:32;;;;;;;4.90;2.53;;;7.70;99.90;;;;;;4930917;29;20206;-69
2021/03/12 08:35:59;;;;;;;7.00;2.38;;;7.70;99.90;;;;;;4935523;29;20217;-70
2021/03/12 08:38:43;;;;;;;3.70;2.75;;;7.80;99.90;;;;;;4920108;29;20210;-68
2021/03/12 08:41:15;;;;;;;7.55;2.47;;;7.80;99.90;;;;;;4929508;29;20237;-69
2021/03/12 08:43:45;;;;;;;2.13;2.03;;;7.70;99.90;;;;;;4932878;29;20239;-69
2021/03/12 08:46:15;;;;;;;3.95;2.30;;;7.80;99.90;;;;;;4935409;29;20210;-70
2021/03/12 08:48:42;;;;;;;5.20;2.35;;;7.90;99.90;;;;;;4933965;29;20265;-70
2021/03/12 08:51:16;;;;;;;3.35;2.45;;;7.90;99.90;;;;;;4924040;29;20225;-70
2021/03/12 08:53:46;;;;;;;2.67;2.03;;;8.00;99.90;;;;;;4937923;29;20205;-72
2021/03/12 08:56:18;;;;;;;4.25;2.28;;;8.00;99.90;;;;;;4931629;29;20662;-71
2021/03/12 08:58:45;;;;;;;2.10;2.00;;;8.00;99.90;;;;;;4922982;29;20222;-72
2021/03/12 09:01:13;;;;;;;2.65;2.22;;;8.10;99.90;;;;;;4934533;29;20612;-71
2021/03/12 09:03:42;;;;;;;4.13;2.40;;;8.00;99.90;;;;;;4922367;29;20625;-72
2021/03/12 09:06:11;;;;;;;6.10;3.05;;;8.10;99.90;;;;;;4936715;29;20252;-70
2021/03/12 09:08:39;;;;;;;2.35;2.15;;;8.10;99.90;;;;;;4933713;29;20209;-73
2021/03/12 09:11:07;;;;;;;2.70;2.45;;;8.20;99.90;;;;;;4926166;29;20222;-71
2021/03/12 09:13:35;;;;;;;5.13;2.33;;;8.40;99.90;;;;;;4919630;29;20219;-71
2021/03/12 09:16:02;;;;;;;2.03;1.92;;;8.50;99.90;;;;;;4925172;29;20202;-71
2021/03/12 09:18:30;;;;;;;3.10;2.38;;;8.50;99.90;;;;;;4943454;29;20209;-71
2021/03/12 09:20:58;;;;;;;3.53;2.15;;;8.60;99.90;;;;;;4938166;29;20234;-70
2021/03/12 09:23:36;;;;;;;3.97;2.03;;;8.80;99.90;;;;;;4921820;29;20665;-70
2021/03/12 09:26:03;;;;;;;2.45;2.25;;;8.80;99.90;;;;;;4924995;28;20285;-70
2021/03/12 09:28:30;;;;;;;5.18;2.40;;;8.80;99.90;;;;;;4924464;29;20473;-71
2021/03/12 09:30:58;;;;;;;8.40;2.45;;;8.80;99.90;;;;;;4921964;29;20242;-70
2021/03/12 09:33:30;;;;;;;2.70;2.50;;;9.00;99.90;;;;;;4916061;29;20234;-70
2021/03/12 09:35:57;;;;;;;6.85;2.00;;;9.00;99.90;;;;;;4919541;28;20202;-69
2021/03/12 09:38:35;;;;;;;3.20;2.33;;;8.90;99.90;;;;;;4930038;29;20195;-69
2021/03/12 09:41:16;;;;;;;3.42;2.45;;;8.80;99.90;;;;;;4921477;29;20241;-69
2021/03/12 09:43:44;;;;;;;10.02;6.38;;;8.80;99.90;;;;;;4925442;29;20234;-71
2021/03/12 09:46:11;;;;;;;21.48;13.93;;;8.90;99.90;;;;;;4933600;29;20257;-71
2021/03/12 09:48:37;;;;;;;2.55;2.03;;;8.90;99.90;;;;;;4930544;29;20274;-70
2021/03/12 09:51:04;;;;;;;5.05;2.75;;;8.90;99.90;;;;;;4925515;29;20214;-70
2021/03/12 09:53:31;;;;;;;3.23;2.57;;;9.00;99.90;;;;;;4915337;29;20534;-68
2021/03/12 09:55:57;;;;;;;4.72;2.90;;;9.10;99.90;;;;;;4917719;29;20515;-69
2021/03/12 09:58:25;;;;;;;6.50;3.00;;;9.10;99.90;;;;;;4933559;29;20312;-70
2021/03/12 10:00:51;;;;;;;4.60;2.67;;;9.10;99.90;;;;;;4933877;28;20242;-69
2021/03/12 10:03:17;;;;;;;2.45;2.25;;;9.20;99.90;;;;;;4916408;29;20207;-70
2021/03/12 10:05:43;;;;;;;6.15;2.80;;;9.30;99.90;;;;;;4915524;29;20640;-69
2021/03/12 10:08:10;;;;;;;6.05;3.05;;;9.20;99.90;;;;;;4915512;29;20673;-71
2021/03/12 10:10:36;;;;;;;6.07;3.10;;;9.20;99.90;;;;;;4916232;29;20235;-69
2021/03/12 10:13:07;;;;;;;3.22;2.95;;;9.20;99.90;;;;;;4914897;29;20510;-69
2021/03/12 10:15:36;;;;;;;5.55;2.95;;;9.20;99.90;;;;;;4918374;29;20210;-69
2021/03/12 10:18:03;;;;;;;4.63;3.22;;;9.20;99.90;;;;;;4927562;29;20277;-69
2021/03/12 10:20:31;;;;;;;3.25;2.95;;;9.20;99.90;;;;;;4937684;29;20245;-69
2021/03/12 10:22:59;;;;;;;4.43;3.03;;;9.10;99.90;;;;;;4936701;29;20649;-69
2021/03/12 10:25:28;;;;;;;5.20;2.88;;;9.10;99.90;;;;;;4937609;29;20684;-69
2021/03/12 10:27:56;;;;;;;3.95;2.90;;;9.10;99.90;;;;;;4937294;29;20214;-69
2021/03/12 10:30:24;;;;;;;4.35;3.35;;;9.10;99.90;;;;;;4937268;29;20213;-69
2021/03/12 10:32:56;;;;;;;2.78;2.67;;;9.00;99.90;;;;;;4926774;29;20207;-69
2021/03/12 10:35:28;;;;;;;4.35;3.97;;;8.90;99.90;;;;;;4918654;29;20232;-70
2021/03/12 10:37:57;;;;;;;2.70;2.60;;;9.00;99.90;;;;;;4918252;29;20207;-70
2021/03/12 10:40:25;;;;;;;5.38;4.57;;;9.00;99.90;;;;;;4917978;29;20762;-70
2021/03/12 10:42:55;;;;;;;3.25;2.92;;;9.00;99.90;;;;;;4917473;29;20215;-70
2021/03/12 10:45:26;;;;;;;4.72;2.85;;;9.00;99.90;;;;;;4917893;29;20253;-70
2021/03/12 10:47:58;;;;;;;5.68;3.60;;;8.90;99.90;;;;;;4919127;29;20202;-72
2021/03/12 10:50:26;;;;;;;6.97;3.33;;;9.00;99.90;;;;;;4917819;29;20207;-72
2021/03/12 10:53:06;;;;;;;2.92;2.67;;;9.00;99.90;;;;;;4917255;29;20665;-72
2021/03/12 10:55:33;;;;;;;4.40;2.88;;;9.10;99.90;;;;;;4918232;29;20210;-73
2021/03/12 10:58:00;;;;;;;4.82;3.38;;;9.20;99.90;;;;;;4917432;29;20217;-72
2021/03/12 11:00:28;;;;;;;5.63;3.75;;;9.40;99.90;;;;;;4917436;29;20290;-72
2021/03/12 11:02:59;;;;;;;4.53;3.40;;;9.50;99.90;;;;;;4918514;29;20199;-69
2021/03/12 11:05:25;;;;;;;3.08;2.85;;;9.50;99.90;;;;;;4931215;29;20265;-70
2021/03/12 11:07:52;;;;;;;3.83;3.63;;;9.50;99.90;;;;;;4936473;29;20206;-68
2021/03/12 11:10:19;;;;;;;3.65;3.35;;;9.50;99.90;;;;;;4934610;29;20198;-69
2021/03/12 11:12:47;;;;;;;9.15;2.53;;;9.60;99.90;;;;;;4935640;29;20276;-67
2021/03/12 11:15:15;;;;;;;2.83;2.63;;;9.60;99.90;;;;;;4935924;29;20218;-68
2021/03/12 11:17:45;;;;;;;3.67;3.30;;;9.60;99.90;;;;;;4934633;28;20219;-68
2021/03/12 11:20:13;;;;;;;4.03;3.28;;;9.60;99.90;;;;;;4935656;29;20498;-68
2021/03/12 11:22:40;;;;;;;3.00;2.70;;;9.60;99.90;;;;;;4931382;29;20209;-69
2021/03/12 11:25:08;;;;;;;5.35;4.85;;;9.70;99.90;;;;;;4920701;29;20218;-69
2021/03/12 11:27:35;;;;;;;2.85;2.70;;;9.70;99.90;;;;;;4917410;29;20266;-69
2021/03/12 11:30:03;;;;;;;2.08;1.85;;;9.70;99.90;;;;;;4928202;29;20210;-68
2021/03/12 11:32:29;;;;;;;6.05;2.30;;;9.70;99.90;;;;;;4926993;29;20234;-68
2021/03/12 11:34:55;;;;;;;6.47;2.55;;;9.80;99.90;;;;;;4926926;29;20206;-72
2021/03/12 11:37:22;;;;;;;4.82;2.33;;;9.80;99.90;;;;;;4934249;29;20539;-70
2021/03/12 11:39:49;;;;;;;3.80;2.00;;;9.70;99.90;;;;;;4921472;29;20198;-70
2021/03/12 11:42:15;;;;;;;4.53;1.98;;;9.80;99.90;;;;;;4919134;29;20235;-71
2021/03/12 11:44:41;;;;;;;3.03;2.03;;;9.90;99.90;;;;;;4925087;29;20218;-70
2021/03/12 11:47:07;;;;;;;4.38;2.65;;;10.00;99.90;;;;;;4929088;29;20243;-71
2021/03/12 11:49:34;;;;;;;2.30;2.00;;;10.20;99.90;;;;;;4929488;29;20206;-71
2021/03/12 11:52:00;;;;;;;2.58;1.75;;;10.30;99.90;;;;;;4929892;29;20233;-71
2021/03/12 11:54:27;;;;;;;2.10;1.95;;;10.40;99.90;;;;;;4921766;29;20666;-71
2021/03/12 11:56:53;;;;;;;2.58;2.03;;;10.40;99.90;;;;;;4918054;29;20206;-71
2021/03/12 11:59:20;;;;;;;3.42;2.50;;;10.40;99.90;;;;;;4921543;29;20594;-72
2021/03/12 12:01:46;;;;;;;5.22;2.30;;;10.40;99.90;;;;;;4921543;29;20231;-72
2021/03/12 12:04:13;;;;;;;1.98;1.88;;;10.40;99.90;;;;;;4922685;29;20231;-70
2021/03/12 12:06:39;;;;;;;3.88;2.00;;;10.30;99.90;;;;;;4935227;29;20202;-70
2021/03/12 12:09:06;;;;;;;1.95;1.75;;;10.30;99.90;;;;;;4935028;29;20202;-70
2021/03/12 12:11:33;;;;;;;4.85;2.30;;;10.30;99.90;;;;;;4929725;29;20226;-71
2021/03/12 12:14:00;;;;;;;4.20;2.53;;;10.30;99.90;;;;;;4920577;29;20210;-71
2021/03/12 12:16:27;;;;;;;2.22;1.73;;;10.20;99.90;;;;;;4924886;29;20542;-71
2021/03/12 12:18:54;;;;;;;3.53;1.90;;;10.20;99.90;;;;;;4917207;29;20265;-71
2021/03/12 12:21:21;;;;;;;5.07;1.88;;;10.10;99.90;;;;;;4921648;29;20560;-71
2021/03/12 12:23:47;;;;;;;4.32;1.90;;;10.00;99.90;;;;;;4934727;29;20206;-71
2021/03/12 12:26:13;;;;;;;4.40;1.80;;;10.00;99.90;;;;;;4935229;29;20705;-70
2021/03/12 12:28:40;;;;;;;2.90;1.75;;;10.00;99.90;;;;;;4934841;29;20206;-71
2021/03/12 12:31:06;;;;;;;3.33;1.80;;;10.00;99.90;;;;;;4935336;29;20360;-71
2021/03/12 12:33:33;;;;;;;2.65;2.00;;;10.00;99.90;;;;;;4924588;29;20331;-70
2021/03/12 12:36:00;;;;;;;2.08;1.90;;;10.10;99.90;;;;;;4917621;29;20243;-71
2021/03/12 12:38:26;;;;;;;3.15;1.55;;;10.20;99.90;;;;;;4918208;29;20203;-71
2021/03/12 12:40:52;;;;;;;4.85;2.42;;;10.20;99.90;;;;;;4931393;29;20230;-71
2021/03/12 12:43:18;;;;;;;2.30;2.10;;;10.20;99.90;;;;;;4934121;29;20214;-72
2021/03/12 12:45:45;;;;;;;2.55;1.42;;;10.20;99.90;;;;;;4931808;29;20204;-70
2021/03/12 12:48:11;;;;;;;4.63;1.52;;;10.20;99.90;;;;;;4925626;29;20219;-70
2021/03/12 12:50:38;;;;;;;6.20;1.70;;;10.10;99.90;;;;;;4917207;29;20230;-69
2021/03/12 12:53:04;;;;;;;2.95;1.50;;;10.10;99.90;;;;;;4916162;29;20596;-69
2021/03/12 12:55:30;;;;;;;2.67;1.70;;;10.10;99.90;;;;;;4934463;29;20210;-69
2021/03/12 12:57:56;;;;;;;1.80;1.60;;;10.10;99.90;;;;;;4927303;29;20312;-70
2021/03/12 13:00:24;;;;;;;4.22;1.35;;;10.00;99.90;;;;;;4932386;28;20696;-69
2021/03/12 13:02:51;;;;;;;4.82;1.65;;;10.00;99.90;;;;;;4921670;29;20567;-69
2021/03/12 13:05:17;;;;;;;2.60;2.05;;;10.00;99.90;;;;;;4915818;29;20215;-69
2021/03/12 13:07:43;;;;;;;5.75;1.73;;;9.90;99.90;;;;;;4915757;29;20214;-69
2021/03/12 13:10:11;;;;;;;2.35;1.75;;;9.90;99.90;;;;;;4916293;29;20586;-69
2021/03/12 13:12:37;;;;;;;9.98;2.17;;;9.90;99.90;;;;;;4914997;29;20226;-69
2021/03/12 13:15:05;;;;;;;1.52;1.30;;;9.90;99.90;;;;;;4916436;29;20657;-69
2021/03/12 13:17:31;;;;;;;1.92;1.80;;;9.80;99.90;;;;;;4916350;29;20208;-69
2021/03/12 13:19:59;;;;;;;6.65;1.90;;;9.70;99.90;;;;;;4915969;29;20696;-69
2021/03/12 13:22:26;;;;;;;3.50;1.60;;;9.70;99.90;;;;;;4915378;29;20238;-70
2021/03/12 13:24:52;;;;;;;2.03;1.70;;;9.70;99.90;;;;;;4916282;29;20521;-70
2021/03/12 13:27:18;;;;;;;2.30;1.90;;;9.80;99.90;;;;;;4916306;29;20222;-71
2021/03/12 13:29:44;;;;;;;1.75;1.40;;;9.90;99.90;;;;;;4917278;29;20215;-73
2021/03/12 13:32:11;;;;;;;7.65;2.90;;;10.10;99.90;;;;;;4915607;29;20587;-72
2021/03/12 13:34:38;;;;;;;3.60;3.30;;;10.10;99.90;;;;;;4932901;29;20210;-72
2021/03/12 13:37:05;;;;;;;2.55;1.35;;;10.10;99.90;;;;;;4934441;29;20206;-71
2021/03/12 13:39:32;;;;;;;3.67;2.08;;;10.10;99.90;;;;;;4935813;29;20536;-71
2021/03/12 13:42:00;;;;;;;2.67;1.83;;;10.10;99.90;;;;;;4934569;29;20296;-72
2021/03/12 13:44:27;;;;;;;3.22;2.20;;;10.10;99.90;;;;;;4935432;29;20205;-71
2021/03/12 13:46:53;;;;;;;3.58;1.60;;;10.10;99.90;;;;;;4935068;29;20254;-70
2021/03/12 13:49:19;;;;;;;2.35;2.25;;;10.00;99.90;;;;;;4930348;29;20221;-71
2021/03/12 13:51:46;;;;;;;8.07;3.65;;;10.10;99.90;;;;;;4919926;29;20294;-71
2021/03/12 13:54:13;;;;;;;9.63;4.90;;;10.20;99.90;;;;;;4918907;29;20210;-71
2021/03/12 13:56:39;;;;;;;3.17;2.40;;;10.20;99.90;;;;;;4922905;29;20302;-71
2021/03/12 13:59:05;;;;;;;2.00;1.58;;;10.30;99.90;;;;;;4938126;29;20742;-71
2021/03/12 14:01:32;;;;;;;9.50;6.35;;;10.40;99.90;;;;;;4936690;28;20229;-71
2021/03/12 14:03:58;;;;;;;6.35;4.63;;;10.40;99.90;;;;;;4937411;29;20595;-72
2021/03/12 14:06:24;;;;;;;8.40;4.78;;;10.50;99.90;;;;;;4936191;29;20224;-72
2021/03/12 14:08:51;;;;;;;3.17;2.03;;;10.50;99.90;;;;;;4938440;29;20257;-71
2021/03/12 14:11:18;;;;;;;6.65;2.33;;;10.50;99.90;;;;;;4937574;29;20226;-72
2021/03/12 14:13:44;;;;;;;13.30;6.85;;;10.50;99.90;;;;;;4937524;29;20214;-71
2021/03/12 14:16:10;;;;;;;5.00;2.65;;;10.40;99.90;;;;;;4937090;29;20210;-71
2021/03/12 14:18:37;;;;;;;7.03;3.63;;;10.40;99.90;;;;;;4937201;29;20205;-71
2021/03/12 14:21:03;;;;;;;4.85;2.25;;;10.30;99.90;;;;;;4935937;29;20242;-71
2021/03/12 14:23:29;;;;;;;2.67;2.13;;;10.20;99.90;;;;;;4936625;29;20209;-71
2021/03/12 14:25:56;;;;;;;3.85;2.00;;;10.20;99.90;;;;;;4936474;28;20222;-71
2021/03/12 14:28:23;;;;;;;6.78;2.20;;;10.10;99.90;;;;;;4936946;29;20555;-71
2021/03/12 14:30:50;;;;;;;3.60;3.17;;;10.00;99.90;;;;;;4936620;29;20332;-71
2021/03/12 14:33:16;;;;;;;2.35;2.15;;;9.90;99.90;;;;;;4936779;29;20224;-72
2021/03/12 14:35:42;;;;;;;3.10;2.17;;;9.70;99.90;;;;;;4937581;29;20198;-72
2021/03/12 14:38:08;;;;;;;10.77;3.33;;;9.50;99.90;;;;;;4935129;28;20756;-72
2021/03/12 14:40:36;;;;;;;4.63;2.70;;;9.30;99.90;;;;;;4937370;29;20233;-72
2021/03/12 14:43:02;;;;;;;5.47;2.67;;;9.10;99.90;;;;;;4936755;29;20724;-71
2021/03/12 14:45:29;;;;;;;3.90;2.70;;;9.00;99.90;;;;;;4937220;29;20645;-71
2021/03/12 14:47:55;;;;;;;3.13;2.80;;;8.90;99.90;;;;;;4936888;29;20217;-71
2021/03/12 14:50:21;;;;;;;7.97;3.45;;;8.90;99.90;;;;;;4937093;29;20218;-71
2021/03/12 14:52:48;;;;;;;5.00;3.05;;;8.80;99.90;;;;;;4934744;29;20676;-71
2021/03/12 14:55:16;;;;;;;2.40;2.08;;;8.80;99.90;;;;;;4936474;29;20646;-70
2021/03/12 14:57:42;;;;;;;2.40;2.05;;;8.70;99.90;;;;;;4935729;28;20210;-70
2021/03/12 15:00:10;;;;;;;10.10;2.50;;;8.70;99.90;;;;;;4933021;29;20739;-70
2021/03/12 15:02:37;;;;;;;2.78;2.58;;;8.70;99.90;;;;;;4916182;29;20246;-70
2021/03/12 15:05:04;;;;;;;6.65;2.78;;;8.80;99.90;;;;;;4928017;29;20214;-72
2021/03/12 15:07:30;;;;;;;4.35;3.05;;;8.80;99.90;;;;;;4935729;28;20605;-71
2021/03/12 15:09:57;;;;;;;3.85;2.50;;;8.80;99.90;;;;;;4931062;29;20540;-71
2021/03/12 15:12:23;;;;;;;5.80;3.10;;;8.80;99.90;;;;;;4928342;29;20576;-70
2021/03/12 15:14:50;;;;;;;10.48;5.38;;;8.80;99.90;;;;;;4920458;29;20643;-71
2021/03/12 15:17:16;;;;;;;3.30;3.10;;;8.80;99.90;;;;;;4917509;29;20229;-72
2021/03/12 15:19:43;;;;;;;4.30;3.92;;;8.80;99.90;;;;;;4919098;28;20245;-71
2021/03/12 15:22:09;;;;;;;3.80;3.53;;;8.80;99.90;;;;;;4925027;29;20701;-70
2021/03/12 15:24:35;;;;;;;5.82;5.28;;;8.80;99.90;;;;;;4928881;29;20273;-70
2021/03/12 15:27:01;;;;;;;4.28;3.42;;;8.80;99.90;;;;;;4935773;29;20210;-71
2021/03/12 15:29:28;;;;;;;7.07;5.22;;;8.80;99.90;;;;;;4926853;29;20587;-71
2021/03/12 15:31:54;;;;;;;10.48;7.85;;;8.80;99.90;;;;;;4935031;29;20218;-72
2021/03/12 15:34:20;;;;;;;4.50;4.15;;;8.80;99.90;;;;;;4923817;28;20218;-72
2021/03/12 15:36:47;;;;;;;11.40;4.95;;;8.80;99.90;;;;;;4931450;29;20206;-71
2021/03/12 15:39:13;;;;;;;3.45;3.15;;;8.80;99.90;;;;;;4930825;29;20262;-71
2021/03/12 15:41:39;;;;;;;7.03;5.32;;;8.80;99.90;;;;;;4917285;29;20237;-72
2021/03/12 15:44:07;;;;;;;5.00;4.65;;;8.80;99.90;;;;;;4928582;29;20216;-71
2021/03/12 15:46:33;;;;;;;4.60;4.22;;;8.80;99.90;;;;;;4935008;28;20214;-71
2021/03/12 15:48:59;;;;;;;11.90;9.15;;;8.80;99.90;;;;;;4932784;29;20205;-71
2021/03/12 15:51:25;;;;;;;9.05;5.70;;;8.80;99.90;;;;;;4928045;29;20668;-71
2021/03/12 15:53:52;;;;;;;6.03;4.30;;;8.70;99.90;;;;;;4925513;29;20214;-71
2021/03/12 15:56:19;;;;;;;14.88;11.15;;;8.70;99.90;;;;;;4922265;29;20590;-71
2021/03/12 15:58:45;;;;;;;5.13;4.80;;;8.70;99.90;;;;;;4936680;29;20210;-71
2021/03/12 16:01:11;;;;;;;6.43;3.75;;;8.70;99.90;;;;;;4924249;29;20231;-71
2021/03/12 16:03:37;;;;;;;5.50;5.10;;;8.60;99.90;;;;;;4916567;29;20225;-71
2021/03/12 16:06:04;;;;;;;11.23;6.80;;;8.70;99.90;;;;;;4924190;29;20549;-71
2021/03/12 16:08:31;;;;;;;5.22;4.13;;;8.60;99.90;;;;;;4916396;29;20217;-71
2021/03/12 16:10:59;;;;;;;3.83;3.63;;;8.60;99.90;;;;;;4925999;29;20237;-71
2021/03/12 16:13:25;;;;;;;10.88;3.83;;;8.60;99.90;;;;;;4934695;29;20209;-71
2021/03/12 16:15:53;;;;;;;5.88;4.80;;;8.60;99.90;;;;;;4923730;29;20283;-71
2021/03/12 16:18:19;;;;;;;7.30;5.30;;;8.60;99.90;;;;;;4916886;29;20545;-72
2021/03/12 16:20:46;;;;;;;3.47;3.17;;;8.60;99.90;;;;;;4922140;29;20252;-72
2021/03/12 16:23:12;;;;;;;5.32;4.43;;;8.60;99.90;;;;;;4929648;29;20222;-71
2021/03/12 16:25:38;;;;;;;8.88;6.65;;;8.60;99.90;;;;;;4923822;29;20217;-70
2021/03/12 16:28:06;;;;;;;7.05;5.13;;;8.60;99.90;;;;;;4930291;29;20289;-70
2021/03/12 16:30:33;;;;;;;33.58;18.45;;;8.60;99.90;;;;;;4928224;29;20230;-71
2021/03/12 16:32:59;;;;;;;6.97;3.40;;;8.60;99.90;;;;;;4931944;29;20229;-71
2021/03/12 16:35:26;;;;;;;11.80;7.25;;;8.60;99.90;;;;;;4929002;29;20210;-71
2021/03/12 16:37:52;;;;;;;10.23;4.85;;;8.60;99.90;;;;;;4934738;29;20198;-72
2021/03/12 16:40:19;;;;;;;16.55;12.63;;;8.60;99.90;;;;;;4915938;29;20218;-71
2021/03/12 16:42:47;;;;;;;12.48;7.18;;;8.60;99.90;;;;;;4915179;29;20634;-71
2021/03/12 16:45:15;;;;;;;10.07;6.20;;;8.50;99.90;;;;;;4922340;29;20236;-71
2021/03/12 16:47:42;;;;;;;6.63;5.97;;;8.50;99.90;;;;;;4930745;29;20206;-71
2021/03/12 16:50:09;;;;;;;12.32;7.65;;;8.50;99.90;;;;;;4933782;29;20216;-68
2021/03/12 16:52:35;;;;;;;5.18;4.63;;;8.50;99.90;;;;;;4925847;29;20209;-68
2021/03/12 16:55:02;;;;;;;6.30;4.65;;;8.50;99.90;;;;;;4929569;29;20309;-71
2021/03/12 16:57:28;;;;;;;8.52;7.60;;;8.50;99.90;;;;;;4930371;29;20206;-71
2021/03/12 16:59:54;;;;;;;7.25;5.60;;;8.50;99.90;;;;;;4926906;29;20213;-71
2021/03/12 17:02:21;;;;;;;2.72;2.63;;;8.50;99.90;;;;;;4929490;29;20237;-71
2021/03/12 17:04:48;;;;;;;8.55;6.97;;;8.50;99.90;;;;;;4920874;29;20206;-70
2021/03/12 17:07:15;;;;;;;12.48;8.32;;;8.40;99.90;;;;;;4926018;29;20205;-70
2021/03/12 17:09:41;;;;;;;17.95;15.07;;;8.40;99.90;;;;;;4921365;29;20557;-71
2021/03/12 17:12:08;;;;;;;7.97;7.18;;;8.40;99.90;;;;;;4916562;29;20254;-71
2021/03/12 17:14:34;;;;;;;9.98;6.25;;;8.40;99.90;;;;;;4921238;29;20750;-71
2021/03/12 17:17:00;;;;;;;7.72;6.10;;;8.40;99.90;;;;;;4929232;29;20213;-71
2021/03/12 17:19:27;;;;;;;4.57;3.92;;;8.40;99.90;;;;;;4926178;29;20210;-71
2021/03/12 17:21:53;;;;;;;5.70;3.90;;;8.40;99.90;;;;;;4931904;29;20221;-71
2021/03/12 17:24:20;;;;;;;4.57;3.83;;;8.40;99.90;;;;;;4927545;29;20660;-72
2021/03/12 17:26:46;;;;;;;7.07;4.47;;;8.40;99.90;;;;;;4927644;29;20205;-71
2021/03/12 17:29:12;;;;;;;5.95;3.30;;;8.30;99.90;;;;;;4934323;29;20321;-70
2021/03/12 17:31:39;;;;;;;4.05;3.65;;;8.30;99.90;;;;;;4930930;29;20230;-71
2021/03/12 17:34:07;;;;;;;4.38;3.35;;;8.20;99.90;;;;;;4924872;29;20681;-70
2021/03/12 17:36:34;;;;;;;3.95;2.83;;;8.10;99.90;;;;;;4931800;29;20305;-71
2021/03/12 17:39:03;;;;;;;18.02;7.40;;;8.10;99.90;;;;;;4938602;29;20560;-71
2021/03/12 17:41:29;;;;;;;5.32;4.22;;;8.00;99.90;;;;;;4936396;29;20345;-70
2021/03/12 17:43:56;;;;;;;4.90;4.40;;;8.00;99.90;;;;;;4919605;29;20234;-69
2021/03/12 17:46:22;;;;;;;7.95;4.25;;;8.00;99.90;;;;;;4930217;28;20301;-70
2021/03/12 17:48:48;;;;;;;4.47;3.20;;;7.90;99.90;;;;;;4924638;29;20264;-69
2021/03/12 17:51:15;;;;;;;4.43;3.97;;;7.90;99.90;;;;;;4937488;29;20233;-70
2021/03/12 17:53:42;;;;;;;8.30;3.40;;;7.80;99.90;;;;;;4924306;29;20207;-69
2021/03/12 17:56:08;;;;;;;3.80;3.20;;;7.80;99.90;;;;;;4918610;29;20222;-69
2021/03/12 17:58:34;;;;;;;2.95;1.98;;;7.80;99.90;;;;;;4920801;29;20214;-69
2021/03/12 18:01:01;;;;;;;4.45;3.28;;;7.80;99.90;;;;;;4920481;29;20225;-69